sensor_id;sensor_type;location;lat;lon;timestamp;P1;durP1;ratioP1;P2;durP2;ratioP2
41217;SDS011;26950;50.960;7.138;2024-03-23T00:54:59;15.03;;;5.23;;
41217;SDS011;26950;50.960;7.138;2024-03-23T00:57:24;14.57;;;5.57;;
41217;SDS011;26950;50.960;7.138;2024-03-23T00:59:51;15.80;;;5.67;;
41217;SDS011;26950;50.960;7.138;2024-03-23T01:02:16;19.13;;;5.93;;
41217;SDS011;26950;50.960;7.138;2024-03-23T01:04:43;12.97;;;5.30;;
41217;SDS011;26950;50.960;7.138;2024-03-23T01:07:09;12.33;;;5.37;;
41217;SDS011;26950;50.960;7.138;2024-03-23T01:09:35;16.47;;;5.90;;
41217;SDS011;26950;50.960;7.138;2024-03-23T01:12:05;12.47;;;5.03;;
41217;SDS011;26950;50.960;7.138;2024-03-23T01:14:31;13.47;;;5.03;;
41217;SDS011;26950;50.960;7.138;2024-03-23T01:16:57;13.77;;;5.33;;
41217;SDS011;26950;50.960;7.138;2024-03-23T01:19:24;15.57;;;5.63;;
41217;SDS011;26950;50.960;7.138;2024-03-23T01:21:49;13.03;;;5.70;;
41217;SDS011;26950;50.960;7.138;2024-03-23T01:24:16;11.87;;;5.00;;
41217;SDS011;26950;50.960;7.138;2024-03-23T01:26:41;14.20;;;5.60;;
41217;SDS011;26950;50.960;7.138;2024-03-23T01:29:09;15.83;;;6.13;;
41217;SDS011;26950;50.960;7.138;2024-03-23T01:31:34;14.83;;;6.27;;
41217;SDS011;26950;50.960;7.138;2024-03-23T01:34:01;14.73;;;6.67;;
41217;SDS011;26950;50.960;7.138;2024-03-23T01:36:28;16.93;;;6.90;;
41217;SDS011;26950;50.960;7.138;2024-03-23T01:38:54;14.00;;;6.40;;
41217;SDS011;26950;50.960;7.138;2024-03-23T01:41:20;11.57;;;5.37;;
41217;SDS011;26950;50.960;7.138;2024-03-23T01:43:46;12.77;;;5.13;;
41217;SDS011;26950;50.960;7.138;2024-03-23T01:46:13;14.30;;;5.37;;
41217;SDS011;26950;50.960;7.138;2024-03-23T01:48:40;11.80;;;4.77;;
41217;SDS011;26950;50.960;7.138;2024-03-23T01:51:05;10.17;;;4.50;;
41217;SDS011;26950;50.960;7.138;2024-03-23T01:53:32;13.60;;;4.73;;
41217;SDS011;26950;50.960;7.138;2024-03-23T01:55:58;11.47;;;4.27;;
41217;SDS011;26950;50.960;7.138;2024-03-23T01:58:24;12.20;;;4.10;;
41217;SDS011;26950;50.960;7.138;2024-03-23T02:00:50;11.63;;;4.43;;
41217;SDS011;26950;50.960;7.138;2024-03-23T02:03:24;11.73;;;4.50;;
41217;SDS011;26950;50.960;7.138;2024-03-23T02:05:50;12.30;;;4.63;;
41217;SDS011;26950;50.960;7.138;2024-03-23T02:08:18;11.87;;;4.47;;
41217;SDS011;26950;50.960;7.138;2024-03-23T02:10:46;10.30;;;3.53;;
41217;SDS011;26950;50.960;7.138;2024-03-23T02:13:13;11.13;;;3.83;;
41217;SDS011;26950;50.960;7.138;2024-03-23T02:15:39;7.87;;;3.20;;
41217;SDS011;26950;50.960;7.138;2024-03-23T02:18:06;11.63;;;3.50;;
41217;SDS011;26950;50.960;7.138;2024-03-23T02:20:34;5.83;;;2.80;;
41217;SDS011;26950;50.960;7.138;2024-03-23T02:23:02;8.07;;;2.90;;
41217;SDS011;26950;50.960;7.138;2024-03-23T02:25:27;6.47;;;2.50;;
41217;SDS011;26950;50.960;7.138;2024-03-23T02:27:54;8.63;;;2.37;;
41217;SDS011;26950;50.960;7.138;2024-03-23T02:30:20;8.33;;;2.57;;
41217;SDS011;26950;50.960;7.138;2024-03-23T02:32:46;7.07;;;2.40;;
41217;SDS011;26950;50.960;7.138;2024-03-23T02:35:12;8.53;;;2.30;;
41217;SDS011;26950;50.960;7.138;2024-03-23T02:37:38;6.90;;;2.00;;
41217;SDS011;26950;50.960;7.138;2024-03-23T02:40:06;8.43;;;2.50;;
41217;SDS011;26950;50.960;7.138;2024-03-23T02:42:33;6.80;;;2.00;;
41217;SDS011;26950;50.960;7.138;2024-03-23T02:44:58;4.87;;;1.93;;
41217;SDS011;26950;50.960;7.138;2024-03-23T02:47:25;5.70;;;2.23;;
41217;SDS011;26950;50.960;7.138;2024-03-23T02:49:51;7.43;;;2.40;;
41217;SDS011;26950;50.960;7.138;2024-03-23T02:52:17;6.93;;;2.20;;
41217;SDS011;26950;50.960;7.138;2024-03-23T02:54:43;9.03;;;2.13;;
41217;SDS011;26950;50.960;7.138;2024-03-23T02:57:11;6.57;;;2.10;;
41217;SDS011;26950;50.960;7.138;2024-03-23T02:59:37;8.03;;;2.13;;
41217;SDS011;26950;50.960;7.138;2024-03-23T03:02:03;7.83;;;1.90;;
41217;SDS011;26950;50.960;7.138;2024-03-23T03:04:30;5.13;;;1.97;;
41217;SDS011;26950;50.960;7.138;2024-03-23T03:06:56;8.57;;;2.27;;
41217;SDS011;26950;50.960;7.138;2024-03-23T03:09:22;5.60;;;1.93;;
41217;SDS011;26950;50.960;7.138;2024-03-23T03:11:48;11.67;;;2.53;;
41217;SDS011;26950;50.960;7.138;2024-03-23T03:14:15;7.33;;;2.17;;
41217;SDS011;26950;50.960;7.138;2024-03-23T03:16:41;7.67;;;2.50;;
41217;SDS011;26950;50.960;7.138;2024-03-23T03:19:07;5.70;;;1.77;;
41217;SDS011;26950;50.960;7.138;2024-03-23T03:21:35;8.57;;;2.20;;
41217;SDS011;26950;50.960;7.138;2024-03-23T03:24:01;5.90;;;1.53;;
41217;SDS011;26950;50.960;7.138;2024-03-23T03:26:28;6.67;;;1.90;;
41217;SDS011;26950;50.960;7.138;2024-03-23T03:28:53;6.83;;;1.80;;
41217;SDS011;26950;50.960;7.138;2024-03-23T03:31:21;7.03;;;1.60;;
41217;SDS011;26950;50.960;7.138;2024-03-23T03:33:46;8.40;;;1.60;;
41217;SDS011;26950;50.960;7.138;2024-03-23T03:36:15;9.83;;;1.87;;
41217;SDS011;26950;50.960;7.138;2024-03-23T03:38:41;6.57;;;1.50;;
41217;SDS011;26950;50.960;7.138;2024-03-23T03:41:07;7.87;;;1.60;;
41217;SDS011;26950;50.960;7.138;2024-03-23T03:43:33;7.53;;;1.47;;
41217;SDS011;26950;50.960;7.138;2024-03-23T03:46:00;7.37;;;1.50;;
41217;SDS011;26950;50.960;7.138;2024-03-23T03:48:27;7.47;;;1.80;;
41217;SDS011;26950;50.960;7.138;2024-03-23T03:50:54;10.97;;;1.80;;
41217;SDS011;26950;50.960;7.138;2024-03-23T03:53:20;6.33;;;1.50;;
41217;SDS011;26950;50.960;7.138;2024-03-23T03:55:47;9.03;;;1.70;;
41217;SDS011;26950;50.960;7.138;2024-03-23T03:58:12;7.73;;;2.03;;
41217;SDS011;26950;50.960;7.138;2024-03-23T04:00:39;9.03;;;2.03;;
41217;SDS011;26950;50.960;7.138;2024-03-23T04:03:05;8.70;;;2.37;;
41217;SDS011;26950;50.960;7.138;2024-03-23T04:05:33;7.83;;;1.90;;
41217;SDS011;26950;50.960;7.138;2024-03-23T04:07:58;7.53;;;1.87;;
41217;SDS011;26950;50.960;7.138;2024-03-23T04:10:25;6.90;;;1.70;;
41217;SDS011;26950;50.960;7.138;2024-03-23T04:12:51;9.90;;;2.17;;
41217;SDS011;26950;50.960;7.138;2024-03-23T04:15:18;7.87;;;2.07;;
41217;SDS011;26950;50.960;7.138;2024-03-23T04:17:44;12.93;;;2.83;;
41217;SDS011;26950;50.960;7.138;2024-03-23T04:20:10;10.37;;;2.40;;
41217;SDS011;26950;50.960;7.138;2024-03-23T04:22:40;7.40;;;1.90;;
41217;SDS011;26950;50.960;7.138;2024-03-23T04:25:06;11.73;;;2.80;;
41217;SDS011;26950;50.960;7.138;2024-03-23T04:27:32;15.50;;;2.80;;
41217;SDS011;26950;50.960;7.138;2024-03-23T04:29:59;12.47;;;2.70;;
41217;SDS011;26950;50.960;7.138;2024-03-23T04:32:26;9.10;;;2.60;;
41217;SDS011;26950;50.960;7.138;2024-03-23T04:34:53;9.13;;;2.73;;
41217;SDS011;26950;50.960;7.138;2024-03-23T04:37:19;10.97;;;2.77;;
41217;SDS011;26950;50.960;7.138;2024-03-23T04:39:47;9.00;;;2.40;;
41217;SDS011;26950;50.960;7.138;2024-03-23T04:42:14;6.47;;;2.20;;
41217;SDS011;26950;50.960;7.138;2024-03-23T04:44:41;11.67;;;2.73;;
41217;SDS011;26950;50.960;7.138;2024-03-23T04:47:07;8.43;;;2.23;;
41217;SDS011;26950;50.960;7.138;2024-03-23T04:49:34;8.03;;;2.57;;
41217;SDS011;26950;50.960;7.138;2024-03-23T04:52:02;12.20;;;2.77;;
41217;SDS011;26950;50.960;7.138;2024-03-23T04:54:28;9.30;;;2.63;;
41217;SDS011;26950;50.960;7.138;2024-03-23T04:56:55;10.47;;;2.50;;
41217;SDS011;26950;50.960;7.138;2024-03-23T04:59:22;11.63;;;2.67;;
41217;SDS011;26950;50.960;7.138;2024-03-23T05:01:47;8.27;;;2.30;;
41217;SDS011;26950;50.960;7.138;2024-03-23T05:04:14;11.33;;;3.20;;
41217;SDS011;26950;50.960;7.138;2024-03-23T05:06:39;8.20;;;2.50;;
41217;SDS011;26950;50.960;7.138;2024-03-23T05:09:06;10.40;;;2.67;;
41217;SDS011;26950;50.960;7.138;2024-03-23T05:11:32;14.33;;;3.00;;
41217;SDS011;26950;50.960;7.138;2024-03-23T05:14:00;7.97;;;2.37;;
41217;SDS011;26950;50.960;7.138;2024-03-23T05:16:25;13.10;;;3.17;;
41217;SDS011;26950;50.960;7.138;2024-03-23T05:18:52;11.47;;;3.03;;
41217;SDS011;26950;50.960;7.138;2024-03-23T05:21:18;9.20;;;2.50;;
41217;SDS011;26950;50.960;7.138;2024-03-23T05:23:44;8.10;;;2.50;;
41217;SDS011;26950;50.960;7.138;2024-03-23T05:26:10;10.07;;;2.93;;
41217;SDS011;26950;50.960;7.138;2024-03-23T05:28:36;10.97;;;2.60;;
41217;SDS011;26950;50.960;7.138;2024-03-23T05:31:03;10.50;;;2.20;;
41217;SDS011;26950;50.960;7.138;2024-03-23T05:33:29;9.10;;;2.60;;
41217;SDS011;26950;50.960;7.138;2024-03-23T05:35:58;9.40;;;2.30;;
41217;SDS011;26950;50.960;7.138;2024-03-23T05:38:26;11.70;;;2.33;;
41217;SDS011;26950;50.960;7.138;2024-03-23T05:40:54;10.20;;;2.50;;
41217;SDS011;26950;50.960;7.138;2024-03-23T05:43:21;7.70;;;1.90;;
41217;SDS011;26950;50.960;7.138;2024-03-23T05:45:52;9.13;;;1.97;;
41217;SDS011;26950;50.960;7.138;2024-03-23T05:48:21;9.07;;;2.07;;
41217;SDS011;26950;50.960;7.138;2024-03-23T05:50:47;9.20;;;2.10;;
41217;SDS011;26950;50.960;7.138;2024-03-23T05:53:14;10.30;;;1.80;;
41217;SDS011;26950;50.960;7.138;2024-03-23T05:55:40;7.40;;;1.90;;
41217;SDS011;26950;50.960;7.138;2024-03-23T05:58:06;8.67;;;2.43;;
41217;SDS011;26950;50.960;7.138;2024-03-23T06:00:31;8.50;;;1.77;;
41217;SDS011;26950;50.960;7.138;2024-03-23T06:02:58;9.37;;;1.70;;
41217;SDS011;26950;50.960;7.138;2024-03-23T06:05:25;12.07;;;2.80;;
41217;SDS011;26950;50.960;7.138;2024-03-23T06:07:52;9.20;;;2.03;;
41217;SDS011;26950;50.960;7.138;2024-03-23T06:10:17;7.20;;;1.90;;
41217;SDS011;26950;50.960;7.138;2024-03-23T06:12:45;10.60;;;2.10;;
41217;SDS011;26950;50.960;7.138;2024-03-23T06:15:11;12.57;;;2.40;;
41217;SDS011;26950;50.960;7.138;2024-03-23T06:17:37;8.17;;;2.30;;
41217;SDS011;26950;50.960;7.138;2024-03-23T06:20:03;8.13;;;2.17;;
41217;SDS011;26950;50.960;7.138;2024-03-23T06:22:32;8.47;;;1.93;;
41217;SDS011;26950;50.960;7.138;2024-03-23T06:24:58;7.37;;;2.00;;
41217;SDS011;26950;50.960;7.138;2024-03-23T06:27:25;13.20;;;2.30;;
41217;SDS011;26950;50.960;7.138;2024-03-23T06:29:50;10.13;;;2.23;;
41217;SDS011;26950;50.960;7.138;2024-03-23T06:32:17;12.90;;;2.40;;
41217;SDS011;26950;50.960;7.138;2024-03-23T06:34:43;9.50;;;2.60;;
41217;SDS011;26950;50.960;7.138;2024-03-23T06:37:10;10.20;;;2.10;;
41217;SDS011;26950;50.960;7.138;2024-03-23T06:39:37;11.67;;;2.73;;
41217;SDS011;26950;50.960;7.138;2024-03-23T06:42:03;10.50;;;1.73;;
41217;SDS011;26950;50.960;7.138;2024-03-23T06:44:29;9.80;;;1.90;;
41217;SDS011;26950;50.960;7.138;2024-03-23T06:46:56;10.27;;;2.20;;
41217;SDS011;26950;50.960;7.138;2024-03-23T06:49:22;16.20;;;2.40;;
41217;SDS011;26950;50.960;7.138;2024-03-23T06:51:49;11.17;;;2.47;;
41217;SDS011;26950;50.960;7.138;2024-03-23T06:54:14;9.20;;;2.73;;
41217;SDS011;26950;50.960;7.138;2024-03-23T06:56:42;10.90;;;2.37;;
41217;SDS011;26950;50.960;7.138;2024-03-23T06:59:09;8.77;;;2.20;;
41217;SDS011;26950;50.960;7.138;2024-03-23T07:01:35;8.23;;;2.10;;
41217;SDS011;26950;50.960;7.138;2024-03-23T07:04:01;12.60;;;2.73;;
41217;SDS011;26950;50.960;7.138;2024-03-23T07:06:29;7.77;;;2.33;;
41217;SDS011;26950;50.960;7.138;2024-03-23T07:08:54;12.73;;;2.20;;
41217;SDS011;26950;50.960;7.138;2024-03-23T07:11:20;12.67;;;2.57;;
41217;SDS011;26950;50.960;7.138;2024-03-23T07:13:49;11.27;;;2.97;;
41217;SDS011;26950;50.960;7.138;2024-03-23T07:16:16;14.53;;;2.67;;
41217;SDS011;26950;50.960;7.138;2024-03-23T07:18:41;9.20;;;2.20;;
41217;SDS011;26950;50.960;7.138;2024-03-23T07:21:08;10.03;;;2.67;;
41217;SDS011;26950;50.960;7.138;2024-03-23T07:23:34;12.23;;;2.53;;
41217;SDS011;26950;50.960;7.138;2024-03-23T07:26:00;9.60;;;2.67;;
41217;SDS011;26950;50.960;7.138;2024-03-23T07:28:27;12.73;;;2.70;;
41217;SDS011;26950;50.960;7.138;2024-03-23T07:31:04;9.17;;;2.43;;
41217;SDS011;26950;50.960;7.138;2024-03-23T07:33:31;10.73;;;2.87;;
41217;SDS011;26950;50.960;7.138;2024-03-23T07:35:58;13.40;;;3.10;;
41217;SDS011;26950;50.960;7.138;2024-03-23T07:38:25;11.07;;;2.90;;
41217;SDS011;26950;50.960;7.138;2024-03-23T07:40:52;15.93;;;2.97;;
41217;SDS011;26950;50.960;7.138;2024-03-23T07:43:27;13.20;;;3.43;;
41217;SDS011;26950;50.960;7.138;2024-03-23T07:45:54;11.40;;;2.60;;
41217;SDS011;26950;50.960;7.138;2024-03-23T07:48:21;13.83;;;3.57;;
41217;SDS011;26950;50.960;7.138;2024-03-23T07:50:55;10.10;;;3.20;;
41217;SDS011;26950;50.960;7.138;2024-03-23T07:53:22;12.23;;;3.43;;
41217;SDS011;26950;50.960;7.138;2024-03-23T07:55:52;12.67;;;3.33;;
41217;SDS011;26950;50.960;7.138;2024-03-23T07:58:19;13.90;;;3.60;;
41217;SDS011;26950;50.960;7.138;2024-03-23T08:00:45;15.80;;;4.00;;
41217;SDS011;26950;50.960;7.138;2024-03-23T08:03:11;14.43;;;3.73;;
41217;SDS011;26950;50.960;7.138;2024-03-23T08:05:39;15.17;;;3.87;;
41217;SDS011;26950;50.960;7.138;2024-03-23T08:08:05;12.67;;;3.90;;
41217;SDS011;26950;50.960;7.138;2024-03-23T08:10:32;14.17;;;4.00;;
41217;SDS011;26950;50.960;7.138;2024-03-23T08:12:57;16.33;;;4.20;;
41217;SDS011;26950;50.960;7.138;2024-03-23T08:15:24;13.57;;;4.10;;
41217;SDS011;26950;50.960;7.138;2024-03-23T08:17:49;15.33;;;4.50;;
41217;SDS011;26950;50.960;7.138;2024-03-23T08:20:16;18.10;;;5.23;;
41217;SDS011;26950;50.960;7.138;2024-03-23T08:22:43;19.03;;;4.70;;
41217;SDS011;26950;50.960;7.138;2024-03-23T08:25:09;13.87;;;4.30;;
41217;SDS011;26950;50.960;7.138;2024-03-23T08:27:34;15.47;;;4.57;;
41217;SDS011;26950;50.960;7.138;2024-03-23T08:30:01;17.30;;;4.90;;
41217;SDS011;26950;50.960;7.138;2024-03-23T08:32:27;14.53;;;4.43;;
41217;SDS011;26950;50.960;7.138;2024-03-23T08:34:54;10.13;;;3.73;;
41217;SDS011;26950;50.960;7.138;2024-03-23T08:37:20;11.70;;;3.50;;
41217;SDS011;26950;50.960;7.138;2024-03-23T08:39:48;12.60;;;3.53;;
41217;SDS011;26950;50.960;7.138;2024-03-23T08:42:16;12.10;;;3.60;;
41217;SDS011;26950;50.960;7.138;2024-03-23T08:44:42;13.55;;;3.97;;
41217;SDS011;26950;50.960;7.138;2024-03-23T08:47:11;10.53;;;3.20;;
41217;SDS011;26950;50.960;7.138;2024-03-23T08:49:38;11.47;;;3.10;;
41217;SDS011;26950;50.960;7.138;2024-03-23T08:52:03;9.97;;;2.93;;
41217;SDS011;26950;50.960;7.138;2024-03-23T08:54:30;12.53;;;2.80;;
41217;SDS011;26950;50.960;7.138;2024-03-23T08:56:57;11.37;;;3.20;;
41217;SDS011;26950;50.960;7.138;2024-03-23T08:59:24;11.83;;;2.83;;
41217;SDS011;26950;50.960;7.138;2024-03-23T09:01:49;14.20;;;2.80;;
41217;SDS011;26950;50.960;7.138;2024-03-23T09:04:16;11.50;;;3.00;;
41217;SDS011;26950;50.960;7.138;2024-03-23T09:06:42;8.77;;;2.20;;
41217;SDS011;26950;50.960;7.138;2024-03-23T09:09:08;11.97;;;3.17;;
41217;SDS011;26950;50.960;7.138;2024-03-23T09:11:34;9.33;;;2.77;;
41217;SDS011;26950;50.960;7.138;2024-03-23T09:14:02;10.63;;;3.20;;
41217;SDS011;26950;50.960;7.138;2024-03-23T09:16:27;10.43;;;3.30;;
41217;SDS011;26950;50.960;7.138;2024-03-23T09:18:54;10.30;;;3.13;;
41217;SDS011;26950;50.960;7.138;2024-03-23T09:21:19;9.85;;;3.28;;
41217;SDS011;26950;50.960;7.138;2024-03-23T09:23:46;11.17;;;2.80;;
41217;SDS011;26950;50.960;7.138;2024-03-23T09:26:11;14.03;;;3.40;;
41217;SDS011;26950;50.960;7.138;2024-03-23T09:28:38;11.63;;;3.50;;
41217;SDS011;26950;50.960;7.138;2024-03-23T09:31:05;11.43;;;3.27;;
41217;SDS011;26950;50.960;7.138;2024-03-23T09:33:33;16.65;;;3.88;;
41217;SDS011;26950;50.960;7.138;2024-03-23T09:36:02;10.32;;;3.42;;
41217;SDS011;26950;50.960;7.138;2024-03-23T09:38:29;11.77;;;3.23;;
41217;SDS011;26950;50.960;7.138;2024-03-23T09:40:54;11.93;;;2.83;;
41217;SDS011;26950;50.960;7.138;2024-03-23T09:43:21;9.60;;;2.93;;
41217;SDS011;26950;50.960;7.138;2024-03-23T09:45:46;11.70;;;3.33;;
41217;SDS011;26950;50.960;7.138;2024-03-23T09:48:14;7.67;;;2.43;;
41217;SDS011;26950;50.960;7.138;2024-03-23T09:50:41;11.33;;;3.00;;
41217;SDS011;26950;50.960;7.138;2024-03-23T09:53:09;13.30;;;2.20;;
41217;SDS011;26950;50.960;7.138;2024-03-23T09:55:36;10.68;;;3.03;;
41217;SDS011;26950;50.960;7.138;2024-03-23T09:58:04;17.38;;;3.50;;
41217;SDS011;26950;50.960;7.138;2024-03-23T10:00:30;9.20;;;2.65;;
41217;SDS011;26950;50.960;7.138;2024-03-23T10:02:57;8.77;;;2.42;;
41217;SDS011;26950;50.960;7.138;2024-03-23T10:08:03;7.13;;;1.80;;
41217;SDS011;26950;50.960;7.138;2024-03-23T10:10:44;7.68;;;1.83;;
41217;SDS011;26950;50.960;7.138;2024-03-23T10:13:10;6.93;;;1.80;;
41217;SDS011;26950;50.960;7.138;2024-03-23T10:15:38;8.32;;;2.10;;
41217;SDS011;26950;50.960;7.138;2024-03-23T10:18:04;8.40;;;2.22;;
41217;SDS011;26950;50.960;7.138;2024-03-23T10:20:46;6.25;;;1.80;;
41217;SDS011;26950;50.960;7.138;2024-03-23T10:23:17;8.10;;;1.85;;
41217;SDS011;26950;50.960;7.138;2024-03-23T10:25:44;10.45;;;2.30;;
41217;SDS011;26950;50.960;7.138;2024-03-23T10:28:11;6.90;;;1.70;;
41217;SDS011;26950;50.960;7.138;2024-03-23T10:30:37;6.88;;;1.95;;
41217;SDS011;26950;50.960;7.138;2024-03-23T10:33:06;7.93;;;1.77;;
41217;SDS011;26950;50.960;7.138;2024-03-23T10:35:34;6.70;;;1.90;;
41217;SDS011;26950;50.960;7.138;2024-03-23T10:38:00;6.40;;;1.63;;
41217;SDS011;26950;50.960;7.138;2024-03-23T10:40:28;5.15;;;1.63;;
41217;SDS011;26950;50.960;7.138;2024-03-23T10:42:55;4.95;;;1.60;;
41217;SDS011;26950;50.960;7.138;2024-03-23T10:45:24;7.60;;;1.92;;
41217;SDS011;26950;50.960;7.138;2024-03-23T10:47:49;9.15;;;1.65;;
41217;SDS011;26950;50.960;7.138;2024-03-23T10:50:17;7.63;;;1.98;;
41217;SDS011;26950;50.960;7.138;2024-03-23T10:52:43;10.53;;;1.97;;
41217;SDS011;26950;50.960;7.138;2024-03-23T10:55:13;4.13;;;1.43;;
41217;SDS011;26950;50.960;7.138;2024-03-23T10:57:45;4.40;;;1.37;;
41217;SDS011;26950;50.960;7.138;2024-03-23T11:00:17;5.87;;;1.37;;
41217;SDS011;26950;50.960;7.138;2024-03-23T11:02:43;4.97;;;1.20;;
41217;SDS011;26950;50.960;7.138;2024-03-23T11:05:28;7.07;;;1.20;;
41217;SDS011;26950;50.960;7.138;2024-03-23T11:07:54;3.03;;;1.20;;
41217;SDS011;26950;50.960;7.138;2024-03-23T11:10:27;3.80;;;1.10;;
41217;SDS011;26950;50.960;7.138;2024-03-23T11:12:55;5.30;;;1.07;;
41217;SDS011;26950;50.960;7.138;2024-03-23T11:15:22;4.83;;;0.80;;
41217;SDS011;26950;50.960;7.138;2024-03-23T11:18:02;5.23;;;1.10;;
41217;SDS011;26950;50.960;7.138;2024-03-23T11:20:33;4.23;;;1.20;;
41217;SDS011;26950;50.960;7.138;2024-03-23T11:22:59;1.70;;;0.73;;
41217;SDS011;26950;50.960;7.138;2024-03-23T11:25:26;4.33;;;1.23;;
41217;SDS011;26950;50.960;7.138;2024-03-23T11:27:53;4.80;;;0.90;;
41217;SDS011;26950;50.960;7.138;2024-03-23T11:30:22;4.00;;;1.10;;
41217;SDS011;26950;50.960;7.138;2024-03-23T11:32:49;5.17;;;1.03;;
41217;SDS011;26950;50.960;7.138;2024-03-23T11:35:25;3.50;;;1.10;;
41217;SDS011;26950;50.960;7.138;2024-03-23T11:38:04;4.03;;;1.43;;
41217;SDS011;26950;50.960;7.138;2024-03-23T11:40:32;6.23;;;1.30;;
41217;SDS011;26950;50.960;7.138;2024-03-23T11:42:59;3.10;;;0.90;;
41217;SDS011;26950;50.960;7.138;2024-03-23T11:45:28;5.17;;;1.00;;
41217;SDS011;26950;50.960;7.138;2024-03-23T11:48:04;3.63;;;0.70;;
41217;SDS011;26950;50.960;7.138;2024-03-23T11:50:32;3.47;;;0.87;;
41217;SDS011;26950;50.960;7.138;2024-03-23T11:53:07;3.13;;;0.80;;
41217;SDS011;26950;50.960;7.138;2024-03-23T11:55:45;3.27;;;0.90;;
41217;SDS011;26950;50.960;7.138;2024-03-23T11:58:11;3.33;;;0.70;;
41217;SDS011;26950;50.960;7.138;2024-03-23T12:00:39;4.80;;;0.70;;
41217;SDS011;26950;50.960;7.138;2024-03-23T12:03:05;4.10;;;0.90;;
41217;SDS011;26950;50.960;7.138;2024-03-23T12:05:32;3.83;;;0.90;;
41217;SDS011;26950;50.960;7.138;2024-03-23T12:08:17;3.40;;;0.90;;
41217;SDS011;26950;50.960;7.138;2024-03-23T12:10:47;3.27;;;0.80;;
41217;SDS011;26950;50.960;7.138;2024-03-23T12:13:14;2.93;;;0.80;;
41217;SDS011;26950;50.960;7.138;2024-03-23T12:15:43;3.53;;;0.90;;
41217;SDS011;26950;50.960;7.138;2024-03-23T12:18:09;2.80;;;1.20;;
41217;SDS011;26950;50.960;7.138;2024-03-23T12:20:37;5.17;;;1.20;;
41217;SDS011;26950;50.960;7.138;2024-03-23T12:23:06;5.40;;;1.20;;
41217;SDS011;26950;50.960;7.138;2024-03-23T12:25:34;3.50;;;1.10;;
41217;SDS011;26950;50.960;7.138;2024-03-23T12:28:00;1.90;;;1.03;;
41217;SDS011;26950;50.960;7.138;2024-03-23T12:30:26;5.10;;;1.00;;
41217;SDS011;26950;50.960;7.138;2024-03-23T12:32:53;5.90;;;1.40;;
41217;SDS011;26950;50.960;7.138;2024-03-23T12:35:20;5.13;;;1.50;;
41217;SDS011;26950;50.960;7.138;2024-03-23T12:37:45;5.53;;;1.77;;
41217;SDS011;26950;50.960;7.138;2024-03-23T12:40:12;3.97;;;1.30;;
41217;SDS011;26950;50.960;7.138;2024-03-23T12:42:37;2.20;;;1.00;;
41217;SDS011;26950;50.960;7.138;2024-03-23T12:45:04;3.93;;;1.03;;
41217;SDS011;26950;50.960;7.138;2024-03-23T12:47:30;4.30;;;0.93;;
41217;SDS011;26950;50.960;7.138;2024-03-23T12:49:58;5.50;;;1.10;;
41217;SDS011;26950;50.960;7.138;2024-03-23T12:52:24;3.07;;;1.20;;
41217;SDS011;26950;50.960;7.138;2024-03-23T12:54:53;1.67;;;0.60;;
41217;SDS011;26950;50.960;7.138;2024-03-23T12:57:21;1.67;;;0.80;;
41217;SDS011;26950;50.960;7.138;2024-03-23T12:59:48;1.50;;;0.70;;
41217;SDS011;26950;50.960;7.138;2024-03-23T13:02:15;1.37;;;0.60;;
41217;SDS011;26950;50.960;7.138;2024-03-23T13:04:42;1.47;;;0.50;;
41217;SDS011;26950;50.960;7.138;2024-03-23T13:07:10;1.00;;;0.50;;
41217;SDS011;26950;50.960;7.138;2024-03-23T13:09:36;1.77;;;0.50;;
41217;SDS011;26950;50.960;7.138;2024-03-23T13:12:02;1.23;;;0.50;;
41217;SDS011;26950;50.960;7.138;2024-03-23T13:14:28;1.37;;;0.63;;
41217;SDS011;26950;50.960;7.138;2024-03-23T13:16:54;0.67;;;0.40;;
41217;SDS011;26950;50.960;7.138;2024-03-23T13:19:20;1.27;;;0.50;;
41217;SDS011;26950;50.960;7.138;2024-03-23T13:21:51;2.10;;;0.40;;
41217;SDS011;26950;50.960;7.138;2024-03-23T13:24:22;1.17;;;0.60;;
41217;SDS011;26950;50.960;7.138;2024-03-23T13:26:49;2.20;;;0.60;;
41217;SDS011;26950;50.960;7.138;2024-03-23T13:29:16;1.67;;;0.60;;
41217;SDS011;26950;50.960;7.138;2024-03-23T13:31:42;2.30;;;0.80;;
41217;SDS011;26950;50.960;7.138;2024-03-23T13:34:09;1.10;;;0.53;;
41217;SDS011;26950;50.960;7.138;2024-03-23T13:36:34;1.27;;;0.70;;
41217;SDS011;26950;50.960;7.138;2024-03-23T13:39:01;1.73;;;0.77;;
41217;SDS011;26950;50.960;7.138;2024-03-23T13:41:31;2.37;;;0.70;;
41217;SDS011;26950;50.960;7.138;2024-03-23T13:43:58;1.73;;;0.70;;
41217;SDS011;26950;50.960;7.138;2024-03-23T13:46:23;2.90;;;0.80;;
41217;SDS011;26950;50.960;7.138;2024-03-23T13:48:50;5.20;;;1.30;;
41217;SDS011;26950;50.960;7.138;2024-03-23T13:51:16;3.60;;;1.23;;
41217;SDS011;26950;50.960;7.138;2024-03-23T13:53:49;6.00;;;1.40;;
41217;SDS011;26950;50.960;7.138;2024-03-23T13:56:14;5.90;;;1.30;;
41217;SDS011;26950;50.960;7.138;2024-03-23T13:58:42;3.13;;;1.40;;
41217;SDS011;26950;50.960;7.138;2024-03-23T14:01:11;3.43;;;1.20;;
41217;SDS011;26950;50.960;7.138;2024-03-23T14:03:38;3.77;;;1.20;;
41217;SDS011;26950;50.960;7.138;2024-03-23T14:06:04;3.80;;;1.37;;
41217;SDS011;26950;50.960;7.138;2024-03-23T14:08:32;6.30;;;1.30;;
41217;SDS011;26950;50.960;7.138;2024-03-23T14:10:59;4.20;;;1.10;;
41217;SDS011;26950;50.960;7.138;2024-03-23T14:13:25;3.63;;;1.50;;
41217;SDS011;26950;50.960;7.138;2024-03-23T14:15:54;4.00;;;1.57;;
41217;SDS011;26950;50.960;7.138;2024-03-23T14:18:20;3.57;;;0.80;;
41217;SDS011;26950;50.960;7.138;2024-03-23T14:20:47;2.80;;;0.77;;
41217;SDS011;26950;50.960;7.138;2024-03-23T14:23:14;2.47;;;0.70;;
41217;SDS011;26950;50.960;7.138;2024-03-23T14:25:39;2.40;;;0.90;;
41217;SDS011;26950;50.960;7.138;2024-03-23T14:28:06;1.93;;;1.00;;
41217;SDS011;26950;50.960;7.138;2024-03-23T14:30:33;2.40;;;0.80;;
41217;SDS011;26950;50.960;7.138;2024-03-23T14:33:01;5.53;;;0.97;;
41217;SDS011;26950;50.960;7.138;2024-03-23T14:35:27;2.73;;;1.00;;
41217;SDS011;26950;50.960;7.138;2024-03-23T14:37:53;2.27;;;0.70;;
41217;SDS011;26950;50.960;7.138;2024-03-23T14:40:19;2.83;;;0.90;;
41217;SDS011;26950;50.960;7.138;2024-03-23T14:42:45;2.00;;;1.00;;
41217;SDS011;26950;50.960;7.138;2024-03-23T14:45:10;2.17;;;0.90;;
41217;SDS011;26950;50.960;7.138;2024-03-23T14:47:37;2.10;;;0.83;;
41217;SDS011;26950;50.960;7.138;2024-03-23T14:50:04;3.23;;;0.83;;
41217;SDS011;26950;50.960;7.138;2024-03-23T14:52:33;4.17;;;0.90;;
41217;SDS011;26950;50.960;7.138;2024-03-23T14:54:59;3.13;;;0.90;;
41217;SDS011;26950;50.960;7.138;2024-03-23T14:57:25;2.40;;;0.87;;
41217;SDS011;26950;50.960;7.138;2024-03-23T14:59:51;4.60;;;0.90;;
41217;SDS011;26950;50.960;7.138;2024-03-23T15:02:18;3.77;;;0.90;;
41217;SDS011;26950;50.960;7.138;2024-03-23T15:04:43;5.93;;;1.10;;
41217;SDS011;26950;50.960;7.138;2024-03-23T15:07:11;2.63;;;1.00;;
41217;SDS011;26950;50.960;7.138;2024-03-23T15:09:36;4.30;;;1.27;;
41217;SDS011;26950;50.960;7.138;2024-03-23T15:12:03;3.27;;;0.93;;
41217;SDS011;26950;50.960;7.138;2024-03-23T15:14:29;2.60;;;0.87;;
41217;SDS011;26950;50.960;7.138;2024-03-23T15:16:55;2.50;;;0.80;;
41217;SDS011;26950;50.960;7.138;2024-03-23T15:19:21;1.27;;;0.70;;
41217;SDS011;26950;50.960;7.138;2024-03-23T15:21:47;1.90;;;0.60;;
41217;SDS011;26950;50.960;7.138;2024-03-23T15:24:14;3.47;;;0.60;;
41217;SDS011;26950;50.960;7.138;2024-03-23T15:26:41;1.30;;;0.70;;
41217;SDS011;26950;50.960;7.138;2024-03-23T15:29:07;3.23;;;0.80;;
41217;SDS011;26950;50.960;7.138;2024-03-23T15:31:36;2.00;;;0.80;;
41217;SDS011;26950;50.960;7.138;2024-03-23T15:34:02;5.10;;;1.20;;
41217;SDS011;26950;50.960;7.138;2024-03-23T15:36:29;3.40;;;1.00;;
41217;SDS011;26950;50.960;7.138;2024-03-23T15:38:55;3.00;;;0.70;;